sensor_id;sensor_type;location;lat;lon;timestamp;pressure;altitude;pressure_sealevel;temperature;humidity
31092;BME280;17747;51.070;10.930;2022-10-16T00:00:17;100292.25;;;14.24;72.08
31092;BME280;17747;51.070;10.930;2022-10-16T00:01:50;100297.63;;;14.22;72.22
31092;BME280;17747;51.070;10.930;2022-10-16T00:03:21;100297.53;;;14.42;71.66
31092;BME280;17747;51.070;10.930;2022-10-16T00:04:52;100302.00;;;14.42;71.45
31092;BME280;17747;51.070;10.930;2022-10-16T00:06:25;100306.97;;;14.50;71.14
31092;BME280;17747;51.070;10.930;2022-10-16T00:07:57;100308.59;;;14.14;71.85
31092;BME280;17747;51.070;10.930;2022-10-16T00:09:29;100315.22;;;14.25;71.63
31092;BME280;17747;51.070;10.930;2022-10-16T00:11:02;100305.22;;;14.30;71.66
31092;BME280;17747;51.070;10.930;2022-10-16T00:12:34;100314.44;;;14.23;71.57
31092;BME280;17747;51.070;10.930;2022-10-16T00:14:07;100314.47;;;14.02;72.27
31092;BME280;17747;51.070;10.930;2022-10-16T00:15:39;100302.75;;;14.06;72.14
31092;BME280;17747;51.070;10.930;2022-10-16T00:17:14;100307.81;;;14.31;71.89
31092;BME280;17747;51.070;10.930;2022-10-16T00:18:46;100313.28;;;14.28;71.53
31092;BME280;17747;51.070;10.930;2022-10-16T00:20:17;100319.22;;;14.14;71.70
31092;BME280;17747;51.070;10.930;2022-10-16T00:21:49;100321.41;;;14.05;72.61
31092;BME280;17747;51.070;10.930;2022-10-16T00:23:21;100327.13;;;13.96;73.05
31092;BME280;17747;51.070;10.930;2022-10-16T00:24:53;100329.22;;;14.28;72.58
31092;BME280;17747;51.070;10.930;2022-10-16T00:26:26;100335.97;;;14.35;72.19
31092;BME280;17747;51.070;10.930;2022-10-16T00:27:58;100331.44;;;14.37;72.01
31092;BME280;17747;51.070;10.930;2022-10-16T00:29:30;100346.50;;;14.18;72.36
31092;BME280;17747;51.070;10.930;2022-10-16T00:31:03;100347.72;;;14.11;72.75
31092;BME280;17747;51.070;10.930;2022-10-16T00:32:35;100335.31;;;14.11;72.67
31092;BME280;17747;51.070;10.930;2022-10-16T00:34:07;100337.34;;;14.05;72.85
31092;BME280;17747;51.070;10.930;2022-10-16T00:35:38;100326.88;;;14.02;73.05
31092;BME280;17747;51.070;10.930;2022-10-16T00:37:10;100331.03;;;14.07;73.23
31092;BME280;17747;51.070;10.930;2022-10-16T00:38:41;100338.50;;;14.38;72.52
31092;BME280;17747;51.070;10.930;2022-10-16T00:40:12;100337.69;;;14.36;72.27
31092;BME280;17747;51.070;10.930;2022-10-16T00:41:43;100333.41;;;14.34;72.22
31092;BME280;17747;51.070;10.930;2022-10-16T00:43:34;100338.72;;;14.34;72.18
31092;BME280;17747;51.070;10.930;2022-10-16T00:45:05;100332.81;;;14.27;72.69
31092;BME280;17747;51.070;10.930;2022-10-16T00:46:38;100335.94;;;14.16;72.65
31092;BME280;17747;51.070;10.930;2022-10-16T00:48:12;100337.66;;;14.17;72.82
31092;BME280;17747;51.070;10.930;2022-10-16T00:49:46;100335.13;;;14.35;72.57
31092;BME280;17747;51.070;10.930;2022-10-16T00:51:19;100346.16;;;14.26;72.32
31092;BME280;17747;51.070;10.930;2022-10-16T00:52:52;100348.31;;;14.36;72.64
31092;BME280;17747;51.070;10.930;2022-10-16T00:54:26;100360.53;;;14.22;72.63
31092;BME280;17747;51.070;10.930;2022-10-16T00:55:57;100356.63;;;14.29;72.54
31092;BME280;17747;51.070;10.930;2022-10-16T00:57:29;100351.03;;;14.16;72.63
31092;BME280;17747;51.070;10.930;2022-10-16T00:59:03;100354.66;;;14.34;72.69
31092;BME280;17747;51.070;10.930;2022-10-16T01:00:38;100356.97;;;14.21;72.66
31092;BME280;17747;51.070;10.930;2022-10-16T01:02:13;100356.19;;;14.19;73.08
31092;BME280;17747;51.070;10.930;2022-10-16T01:03:45;100352.47;;;14.42;72.53
31092;BME280;17747;51.070;10.930;2022-10-16T01:05:17;100355.00;;;14.06;72.90
31092;BME280;17747;51.070;10.930;2022-10-16T01:06:55;100356.72;;;14.27;73.08
31092;BME280;17747;51.070;10.930;2022-10-16T01:08:34;100360.72;;;14.17;73.23
31092;BME280;17747;51.070;10.930;2022-10-16T01:10:17;100360.41;;;14.04;73.80
31092;BME280;17747;51.070;10.930;2022-10-16T01:11:57;100362.97;;;14.26;73.40
31092;BME280;17747;51.070;10.930;2022-10-16T01:13:35;100364.16;;;14.19;73.14
31092;BME280;17747;51.070;10.930;2022-10-16T01:15:13;100359.22;;;14.30;73.25
31092;BME280;17747;51.070;10.930;2022-10-16T01:16:49;100364.19;;;14.38;72.91
31092;BME280;17747;51.070;10.930;2022-10-16T01:18:30;100371.88;;;14.25;73.32
31092;BME280;17747;51.070;10.930;2022-10-16T01:20:12;100370.19;;;14.62;72.49
31092;BME280;17747;51.070;10.930;2022-10-16T01:21:51;100369.09;;;14.47;72.37
31092;BME280;17747;51.070;10.930;2022-10-16T01:23:36;100359.97;;;14.53;72.07
31092;BME280;17747;51.070;10.930;2022-10-16T01:25:12;100366.72;;;14.41;72.37
31092;BME280;17747;51.070;10.930;2022-10-16T01:27:03;100365.31;;;14.32;72.45
31092;BME280;17747;51.070;10.930;2022-10-16T01:28:39;100371.16;;;14.22;72.84
31092;BME280;17747;51.070;10.930;2022-10-16T01:30:15;100372.88;;;14.41;72.64
31092;BME280;17747;51.070;10.930;2022-10-16T01:31:51;100370.19;;;14.62;72.02
31092;BME280;17747;51.070;10.930;2022-10-16T01:33:30;100371.66;;;14.69;71.59
31092;BME280;17747;51.070;10.930;2022-10-16T01:35:08;100374.16;;;14.72;71.35
31092;BME280;17747;51.070;10.930;2022-10-16T01:36:44;100377.22;;;14.63;71.36
31092;BME280;17747;51.070;10.930;2022-10-16T01:38:18;100378.63;;;14.71;71.27
31092;BME280;17747;51.070;10.930;2022-10-16T01:39:55;100380.97;;;14.59;71.25
31092;BME280;17747;51.070;10.930;2022-10-16T01:41:32;100392.63;;;14.75;71.11
31092;BME280;17747;51.070;10.930;2022-10-16T01:43:10;100391.44;;;14.62;71.14
31092;BME280;17747;51.070;10.930;2022-10-16T01:44:44;100391.44;;;14.62;71.29
31092;BME280;17747;51.070;10.930;2022-10-16T01:46:18;100392.16;;;14.65;71.38
31092;BME280;17747;51.070;10.930;2022-10-16T01:47:51;100391.69;;;14.37;71.88
31092;BME280;17747;51.070;10.930;2022-10-16T01:49:25;100404.38;;;14.51;71.92
31092;BME280;17747;51.070;10.930;2022-10-16T01:51:00;100396.75;;;14.62;71.61
31092;BME280;17747;51.070;10.930;2022-10-16T01:52:36;100409.13;;;14.63;71.23
31092;BME280;17747;51.070;10.930;2022-10-16T01:54:10;100402.75;;;14.67;71.00
31092;BME280;17747;51.070;10.930;2022-10-16T01:55:46;100402.22;;;14.59;70.93
31092;BME280;17747;51.070;10.930;2022-10-16T01:57:21;100407.97;;;14.50;70.77
31092;BME280;17747;51.070;10.930;2022-10-16T01:58:59;100405.81;;;14.58;70.52
31092;BME280;17747;51.070;10.930;2022-10-16T02:00:31;100408.44;;;14.39;70.54
31092;BME280;17747;51.070;10.930;2022-10-16T02:02:07;100413.66;;;14.22;70.48
31092;BME280;17747;51.070;10.930;2022-10-16T02:03:42;100413.13;;;14.53;70.25
31092;BME280;17747;51.070;10.930;2022-10-16T02:05:20;100418.50;;;14.51;69.71
31092;BME280;17747;51.070;10.930;2022-10-16T02:06:53;100422.72;;;14.36;69.38
31092;BME280;17747;51.070;10.930;2022-10-16T02:08:28;100419.00;;;14.40;69.18
31092;BME280;17747;51.070;10.930;2022-10-16T02:10:01;100410.13;;;14.60;68.76
31092;BME280;17747;51.070;10.930;2022-10-16T02:11:33;100418.81;;;14.45;68.68
31092;BME280;17747;51.070;10.930;2022-10-16T02:13:07;100412.63;;;14.63;68.54
31092;BME280;17747;51.070;10.930;2022-10-16T02:14:41;100416.44;;;14.58;68.07
31092;BME280;17747;51.070;10.930;2022-10-16T02:16:13;100424.31;;;14.40;68.09
31092;BME280;17747;51.070;10.930;2022-10-16T02:17:45;100431.63;;;14.35;68.44
31092;BME280;17747;51.070;10.930;2022-10-16T02:19:17;100427.50;;;14.49;68.20
31092;BME280;17747;51.070;10.930;2022-10-16T02:20:53;100434.38;;;14.53;68.05
31092;BME280;17747;51.070;10.930;2022-10-16T02:22:28;100434.28;;;14.56;67.91
31092;BME280;17747;51.070;10.930;2022-10-16T02:24:03;100427.72;;;14.63;67.80
31092;BME280;17747;51.070;10.930;2022-10-16T02:25:41;100423.34;;;14.62;67.47
31092;BME280;17747;51.070;10.930;2022-10-16T02:27:19;100432.09;;;14.64;67.36
31092;BME280;17747;51.070;10.930;2022-10-16T02:28:55;100437.50;;;14.62;67.33
31092;BME280;17747;51.070;10.930;2022-10-16T02:30:33;100440.78;;;14.69;67.24
31092;BME280;17747;51.070;10.930;2022-10-16T02:32:07;100438.81;;;14.33;67.62
31092;BME280;17747;51.070;10.930;2022-10-16T02:33:42;100441.34;;;14.16;68.25
31092;BME280;17747;51.070;10.930;2022-10-16T02:35:17;100438.00;;;14.31;68.06
31092;BME280;17747;51.070;10.930;2022-10-16T02:36:50;100434.38;;;14.34;67.85
31092;BME280;17747;51.070;10.930;2022-10-16T02:38:22;100437.81;;;14.36;67.52
31092;BME280;17747;51.070;10.930;2022-10-16T02:39:56;100439.69;;;14.34;67.85
31092;BME280;17747;51.070;10.930;2022-10-16T02:41:28;100441.94;;;14.23;67.71
31092;BME280;17747;51.070;10.930;2022-10-16T02:42:59;100451.16;;;14.34;67.60
31092;BME280;17747;51.070;10.930;2022-10-16T02:44:30;100447.56;;;14.35;67.52
31092;BME280;17747;51.070;10.930;2022-10-16T02:46:03;100453.69;;;14.37;67.39
31092;BME280;17747;51.070;10.930;2022-10-16T02:47:34;100445.97;;;14.31;67.29
31092;BME280;17747;51.070;10.930;2022-10-16T02:49:05;100450.41;;;14.31;67.33
31092;BME280;17747;51.070;10.930;2022-10-16T02:50:36;100456.47;;;14.34;67.38
31092;BME280;17747;51.070;10.930;2022-10-16T02:52:08;100466.78;;;14.22;67.64
31092;BME280;17747;51.070;10.930;2022-10-16T02:53:38;100463.13;;;14.04;67.94
31092;BME280;17747;51.070;10.930;2022-10-16T02:55:10;100459.84;;;13.77;68.57
31092;BME280;17747;51.070;10.930;2022-10-16T02:56:41;100452.72;;;13.55;69.49
31092;BME280;17747;51.070;10.930;2022-10-16T02:58:12;100457.81;;;13.60;69.74
31092;BME280;17747;51.070;10.930;2022-10-16T02:59:44;100452.53;;;13.60;69.53
31092;BME280;17747;51.070;10.930;2022-10-16T03:01:17;100452.69;;;13.12;70.60
31092;BME280;17747;51.070;10.930;2022-10-16T03:02:48;100451.84;;;13.55;70.23
31092;BME280;17747;51.070;10.930;2022-10-16T03:04:20;100456.97;;;13.81;69.55
31092;BME280;17747;51.070;10.930;2022-10-16T03:05:51;100455.03;;;13.85;69.29
31092;BME280;17747;51.070;10.930;2022-10-16T03:07:23;100451.44;;;13.44;69.61
31092;BME280;17747;51.070;10.930;2022-10-16T03:08:54;100454.75;;;13.49;70.01
31092;BME280;17747;51.070;10.930;2022-10-16T03:10:26;100450.50;;;13.45;69.77
31092;BME280;17747;51.070;10.930;2022-10-16T03:11:57;100468.81;;;13.51;69.83
31092;BME280;17747;51.070;10.930;2022-10-16T03:13:28;100465.91;;;13.35;70.19
31092;BME280;17747;51.070;10.930;2022-10-16T03:14:59;100467.88;;;13.30;70.51
31092;BME280;17747;51.070;10.930;2022-10-16T03:16:31;100458.06;;;13.10;70.84
31092;BME280;17747;51.070;10.930;2022-10-16T03:18:03;100455.09;;;13.18;71.39
31092;BME280;17747;51.070;10.930;2022-10-16T03:19:33;100460.53;;;13.15;71.49
31092;BME280;17747;51.070;10.930;2022-10-16T03:21:06;100455.63;;;13.04;71.49
31092;BME280;17747;51.070;10.930;2022-10-16T03:22:37;100460.53;;;13.15;71.36
31092;BME280;17747;51.070;10.930;2022-10-16T03:24:09;100452.63;;;13.13;71.26
31092;BME280;17747;51.070;10.930;2022-10-16T03:25:39;100455.00;;;13.21;71.25
31092;BME280;17747;51.070;10.930;2022-10-16T03:27:11;100460.59;;;13.13;71.17
31092;BME280;17747;51.070;10.930;2022-10-16T03:28:42;100457.78;;;12.94;71.58
31092;BME280;17747;51.070;10.930;2022-10-16T03:30:14;100467.63;;;12.91;71.63
31092;BME280;17747;51.070;10.930;2022-10-16T03:31:46;100462.16;;;12.72;72.21
31092;BME280;17747;51.070;10.930;2022-10-16T03:33:18;100463.53;;;12.82;72.18
31092;BME280;17747;51.070;10.930;2022-10-16T03:34:50;100465.25;;;13.07;71.81
31092;BME280;17747;51.070;10.930;2022-10-16T03:36:23;100465.09;;;13.11;71.40
31092;BME280;17747;51.070;10.930;2022-10-16T03:37:54;100469.31;;;13.39;70.62
31092;BME280;17747;51.070;10.930;2022-10-16T03:39:26;100466.53;;;13.42;69.87
31092;BME280;17747;51.070;10.930;2022-10-16T03:40:58;100464.75;;;13.42;69.68
31092;BME280;17747;51.070;10.930;2022-10-16T03:42:28;100467.06;;;13.28;69.56
31092;BME280;17747;51.070;10.930;2022-10-16T03:44:00;100469.09;;;12.99;70.24
31092;BME280;17747;51.070;10.930;2022-10-16T03:45:31;100477.19;;;12.95;70.30
31092;BME280;17747;51.070;10.930;2022-10-16T03:47:04;100483.16;;;12.78;70.68
31092;BME280;17747;51.070;10.930;2022-10-16T03:48:35;100487.91;;;12.68;70.90
31092;BME280;17747;51.070;10.930;2022-10-16T03:50:07;100487.91;;;12.68;71.35
31092;BME280;17747;51.070;10.930;2022-10-16T03:51:38;100486.19;;;12.67;71.80
31092;BME280;17747;51.070;10.930;2022-10-16T03:53:10;100491.44;;;12.92;71.15
31092;BME280;17747;51.070;10.930;2022-10-16T03:54:41;100490.69;;;12.89;71.00
31092;BME280;17747;51.070;10.930;2022-10-16T03:56:13;100488.25;;;13.06;70.71
31092;BME280;17747;51.070;10.930;2022-10-16T03:57:44;100483.19;;;13.00;70.31
31092;BME280;17747;51.070;10.930;2022-10-16T03:59:16;100485.16;;;12.95;70.49
31092;BME280;17747;51.070;10.930;2022-10-16T04:00:48;100494.03;;;12.94;70.45
31092;BME280;17747;51.070;10.930;2022-10-16T04:02:20;100489.50;;;12.97;70.28
31092;BME280;17747;51.070;10.930;2022-10-16T04:03:51;100495.41;;;12.81;70.72
31092;BME280;17747;51.070;10.930;2022-10-16T04:05:22;100494.81;;;12.72;70.88
31092;BME280;17747;51.070;10.930;2022-10-16T04:06:54;100492.75;;;12.81;70.68
31092;BME280;17747;51.070;10.930;2022-10-16T04:08:24;100501.03;;;12.71;70.99
31092;BME280;17747;51.070;10.930;2022-10-16T04:09:56;100500.25;;;12.69;70.96
31092;BME280;17747;51.070;10.930;2022-10-16T04:11:29;100505.66;;;12.40;71.59
31092;BME280;17747;51.070;10.930;2022-10-16T04:12:59;100504.06;;;12.36;72.01
31092;BME280;17747;51.070;10.930;2022-10-16T04:14:30;100506.72;;;12.36;72.20
31092;BME280;17747;51.070;10.930;2022-10-16T04:16:02;100494.66;;;12.52;72.04
31092;BME280;17747;51.070;10.930;2022-10-16T04:17:35;100494.81;;;12.48;71.71
31092;BME280;17747;51.070;10.930;2022-10-16T04:19:06;100496.22;;;12.33;72.04
31092;BME280;17747;51.070;10.930;2022-10-16T04:20:38;100501.72;;;12.27;72.24
31092;BME280;17747;51.070;10.930;2022-10-16T04:22:08;100500.00;;;12.26;72.39
31092;BME280;17747;51.070;10.930;2022-10-16T04:23:40;100504.91;;;12.36;72.21
31092;BME280;17747;51.070;10.930;2022-10-16T04:25:11;100511.75;;;12.43;71.94
31092;BME280;17747;51.070;10.930;2022-10-16T04:26:43;100509.47;;;12.58;71.49
31092;BME280;17747;51.070;10.930;2022-10-16T04:28:13;100512.13;;;12.58;71.26
31092;BME280;17747;51.070;10.930;2022-10-16T04:29:45;100512.13;;;12.58;71.16
31092;BME280;17747;51.070;10.930;2022-10-16T04:31:16;100509.66;;;12.78;70.89
31092;BME280;17747;51.070;10.930;2022-10-16T04:32:49;100515.00;;;12.77;70.71
31092;BME280;17747;51.070;10.930;2022-10-16T04:34:21;100517.81;;;12.72;70.47
31092;BME280;17747;51.070;10.930;2022-10-16T04:35:59;100523.97;;;12.72;70.32
31092;BME280;17747;51.070;10.930;2022-10-16T04:37:31;100516.13;;;12.69;70.25
31092;BME280;17747;51.070;10.930;2022-10-16T04:39:02;100501.16;;;12.68;70.07
31092;BME280;17747;51.070;10.930;2022-10-16T04:40:34;100501.75;;;12.77;70.01
31092;BME280;17747;51.070;10.930;2022-10-16T04:42:06;100499.63;;;12.63;69.81
31092;BME280;17747;51.070;10.930;2022-10-16T04:43:37;100506.34;;;12.47;70.02
31092;BME280;17747;51.070;10.930;2022-10-16T04:45:09;100503.50;;;12.51;70.01
31092;BME280;17747;51.070;10.930;2022-10-16T04:46:41;100505.47;;;12.46;69.81
31092;BME280;17747;51.070;10.930;2022-10-16T04:48:15;100503.81;;;12.68;69.36
31092;BME280;17747;51.070;10.930;2022-10-16T04:49:47;100511.59;;;12.96;68.86
31092;BME280;17747;51.070;10.930;2022-10-16T04:51:18;100504.28;;;13.03;68.33
31092;BME280;17747;51.070;10.930;2022-10-16T04:52:50;100499.84;;;13.04;68.01
31092;BME280;17747;51.070;10.930;2022-10-16T04:54:21;100502.38;;;13.07;67.79
31092;BME280;17747;51.070;10.930;2022-10-16T04:55:53;100510.13;;;13.13;67.53
31092;BME280;17747;51.070;10.930;2022-10-16T04:57:24;100511.31;;;13.04;67.71
31092;BME280;17747;51.070;10.930;2022-10-16T04:58:57;100506.41;;;12.93;67.71
31092;BME280;17747;51.070;10.930;2022-10-16T05:00:28;100514.31;;;12.95;67.88
31092;BME280;17747;51.070;10.930;2022-10-16T05:01:58;100502.84;;;12.94;67.86
31092;BME280;17747;51.070;10.930;2022-10-16T05:03:31;100507.63;;;12.85;67.76
31092;BME280;17747;51.070;10.930;2022-10-16T05:05:04;100503.81;;;12.68;68.17
31092;BME280;17747;51.070;10.930;2022-10-16T05:06:35;100501.81;;;12.75;67.96
31092;BME280;17747;51.070;10.930;2022-10-16T05:08:06;100512.97;;;12.83;67.68
31092;BME280;17747;51.070;10.930;2022-10-16T05:09:37;100515.00;;;12.77;67.59
31092;BME280;17747;51.070;10.930;2022-10-16T05:11:09;100516.56;;;12.82;67.52
31092;BME280;17747;51.070;10.930;2022-10-16T05:12:40;100511.56;;;12.75;67.87
31092;BME280;17747;51.070;10.930;2022-10-16T05:14:12;100512.13;;;12.83;67.72
31092;BME280;17747;51.070;10.930;2022-10-16T05:15:46;100509.16;;;12.67;68.05
31092;BME280;17747;51.070;10.930;2022-10-16T05:17:18;100507.59;;;12.61;68.31
31092;BME280;17747;51.070;10.930;2022-10-16T05:18:50;100509.66;;;12.53;68.50
31092;BME280;17747;51.070;10.930;2022-10-16T05:20:23;100514.69;;;12.61;68.29
31092;BME280;17747;51.070;10.930;2022-10-16T05:21:54;100521.97;;;12.54;68.09
31092;BME280;17747;51.070;10.930;2022-10-16T05:23:26;100523.22;;;12.44;68.33
31092;BME280;17747;51.070;10.930;2022-10-16T05:24:57;100522.84;;;12.30;68.73
31092;BME280;17747;51.070;10.930;2022-10-16T05:26:29;100529.44;;;12.43;68.47
31092;BME280;17747;51.070;10.930;2022-10-16T05:28:00;100531.91;;;12.48;68.45
31092;BME280;17747;51.070;10.930;2022-10-16T05:29:31;100522.16;;;12.48;68.56
31092;BME280;17747;51.070;10.930;2022-10-16T05:31:07;100531.50;;;12.60;68.51
31092;BME280;17747;51.070;10.930;2022-10-16T05:32:39;100535.03;;;12.59;68.39
31092;BME280;17747;51.070;10.930;2022-10-16T05:34:12;100541.38;;;12.55;68.55
31092;BME280;17747;51.070;10.930;2022-10-16T05:35:43;100534.94;;;12.63;68.59
31092;BME280;17747;51.070;10.930;2022-10-16T05:37:15;100525.31;;;12.59;68.74
31092;BME280;17747;51.070;10.930;2022-10-16T05:38:50;100531.66;;;12.55;68.62
31092;BME280;17747;51.070;10.930;2022-10-16T05:40:22;100528.13;;;12.55;68.88
31092;BME280;17747;51.070;10.930;2022-10-16T05:41:53;100522.16;;;12.48;69.06
31092;BME280;17747;51.070;10.930;2022-10-16T05:43:27;100522.97;;;12.50;69.24
31092;BME280;17747;51.070;10.930;2022-10-16T05:44:58;100529.91;;;12.54;69.10
31092;BME280;17747;51.070;10.930;2022-10-16T05:46:30;100526.97;;;12.63;69.03
31092;BME280;17747;51.070;10.930;2022-10-16T05:48:01;100529.19;;;12.76;68.69
31092;BME280;17747;51.070;10.930;2022-10-16T05:49:34;100524.81;;;12.75;68.49
31092;BME280;17747;51.070;10.930;2022-10-16T05:51:06;100537.22;;;12.72;68.60
31092;BME280;17747;51.070;10.930;2022-10-16T05:52:38;100534.38;;;12.79;68.46
31092;BME280;17747;51.070;10.930;2022-10-16T05:54:09;100544.25;;;12.73;68.48
31092;BME280;17747;51.070;10.930;2022-10-16T05:55:41;100546.41;;;12.64;68.47
31092;BME280;17747;51.070;10.930;2022-10-16T05:57:11;100546.94;;;12.47;68.87
31092;BME280;17747;51.070;10.930;2022-10-16T05:58:43;100544.88;;;12.55;69.05
31092;BME280;17747;51.070;10.930;2022-10-16T06:00:15;100554.44;;;12.61;68.96
31092;BME280;17747;51.070;10.930;2022-10-16T06:01:47;100557.41;;;12.50;69.31
31092;BME280;17747;51.070;10.930;2022-10-16T06:03:18;100553.91;;;12.50;69.10
31092;BME280;17747;51.070;10.930;2022-10-16T06:04:51;100556.66;;;12.47;69.20
31092;BME280;17747;51.070;10.930;2022-10-16T06:06:26;100553.47;;;12.10;69.71
31092;BME280;17747;51.070;10.930;2022-10-16T06:07:58;100549.59;;;12.47;69.78
31092;BME280;17747;51.070;10.930;2022-10-16T06:09:29;100559.91;;;12.30;69.51
31092;BME280;17747;51.070;10.930;2022-10-16T06:11:02;100563.56;;;12.52;69.32
31092;BME280;17747;51.070;10.930;2022-10-16T06:12:33;100567.22;;;12.48;69.26
31092;BME280;17747;51.070;10.930;2022-10-16T06:14:05;100576.50;;;12.61;68.99
31092;BME280;17747;51.070;10.930;2022-10-16T06:15:37;100564.44;;;12.51;69.46
31092;BME280;17747;51.070;10.930;2022-10-16T06:17:09;100573.38;;;12.49;70.02
31092;BME280;17747;51.070;10.930;2022-10-16T06:18:40;100582.19;;;12.49;69.95
31092;BME280;17747;51.070;10.930;2022-10-16T06:20:13;100587.94;;;12.63;69.86
31092;BME280;17747;51.070;10.930;2022-10-16T06:21:45;100597.81;;;12.83;69.69
31092;BME280;17747;51.070;10.930;2022-10-16T06:23:17;100596.41;;;12.73;69.69
31092;BME280;17747;51.070;10.930;2022-10-16T06:24:48;100596.41;;;12.98;69.46
31092;BME280;17747;51.070;10.930;2022-10-16T06:26:22;100605.81;;;13.07;69.08
31092;BME280;17747;51.070;10.930;2022-10-16T06:27:54;100616.97;;;12.91;68.94
31092;BME280;17747;51.070;10.930;2022-10-16T06:29:25;100623.28;;;13.12;68.96
31092;BME280;17747;51.070;10.930;2022-10-16T06:30:59;100615.78;;;13.00;69.20
31092;BME280;17747;51.070;10.930;2022-10-16T06:32:29;100613.28;;;13.20;68.77
31092;BME280;17747;51.070;10.930;2022-10-16T06:34:01;100612.25;;;12.99;68.98
31092;BME280;17747;51.070;10.930;2022-10-16T06:35:36;100626.63;;;13.17;68.77
31092;BME280;17747;51.070;10.930;2022-10-16T06:37:07;100621.41;;;12.91;69.45
31092;BME280;17747;51.070;10.930;2022-10-16T06:38:39;100620.66;;;12.87;69.63
31092;BME280;17747;51.070;10.930;2022-10-16T06:40:10;100617.78;;;12.93;69.78
31092;BME280;17747;51.070;10.930;2022-10-16T06:41:44;100615.91;;;12.97;69.78
31092;BME280;17747;51.070;10.930;2022-10-16T06:43:15;100617.03;;;12.90;69.89
31092;BME280;17747;51.070;10.930;2022-10-16T06:44:46;100627.78;;;13.10;69.38
31092;BME280;17747;51.070;10.930;2022-10-16T06:46:19;100631.56;;;13.03;69.72
31092;BME280;17747;51.070;10.930;2022-10-16T06:47:51;100632.41;;;13.28;69.46
31092;BME280;17747;51.070;10.930;2022-10-16T06:49:23;100629.81;;;13.27;69.12
31092;BME280;17747;51.070;10.930;2022-10-16T06:50:57;100634.53;;;13.19;69.36
31092;BME280;17747;51.070;10.930;2022-10-16T06:52:28;100638.13;;;13.41;69.14
31092;BME280;17747;51.070;10.930;2022-10-16T06:53:59;100638.91;;;13.45;68.79
31092;BME280;17747;51.070;10.930;2022-10-16T06:55:30;100639.75;;;13.45;68.77
31092;BME280;17747;51.070;10.930;2022-10-16T06:57:01;100643.03;;;13.52;68.58
31092;BME280;17747;51.070;10.930;2022-10-16T06:58:32;100652.19;;;13.68;68.27
31092;BME280;17747;51.070;10.930;2022-10-16T07:00:05;100658.03;;;13.53;68.51
31092;BME280;17747;51.070;10.930;2022-10-16T07:01:37;100654.50;;;13.52;68.48
31092;BME280;17747;51.070;10.930;2022-10-16T07:03:08;100654.69;;;13.48;68.68
31092;BME280;17747;51.070;10.930;2022-10-16T07:04:40;100647.53;;;13.50;68.77
31092;BME280;17747;51.070;10.930;2022-10-16T07:06:14;100662.25;;;13.58;68.78
31092;BME280;17747;51.070;10.930;2022-10-16T07:07:45;100662.28;;;13.82;68.46
31092;BME280;17747;51.070;10.930;2022-10-16T07:09:17;100665.91;;;13.79;68.50
31092;BME280;17747;51.070;10.930;2022-10-16T07:10:48;100670.97;;;13.85;68.33
31092;BME280;17747;51.070;10.930;2022-10-16T07:12:27;100670.97;;;13.85;68.56
31092;BME280;17747;51.070;10.930;2022-10-16T07:13:59;100670.28;;;14.04;68.05
31092;BME280;17747;51.070;10.930;2022-10-16T07:15:30;100670.34;;;14.24;67.48
31092;BME280;17747;51.070;10.930;2022-10-16T07:17:02;100666.56;;;14.08;67.71
31092;BME280;17747;51.070;10.930;2022-10-16T07:18:34;100673.72;;;14.06;67.62
31092;BME280;17747;51.070;10.930;2022-10-16T07:20:06;100668.72;;;14.20;67.37
31092;BME280;17747;51.070;10.930;2022-10-16T07:21:39;100675.28;;;14.11;67.50
31092;BME280;17747;51.070;10.930;2022-10-16T07:23:11;100671.28;;;14.23;67.04
31092;BME280;17747;51.070;10.930;2022-10-16T07:24:42;100674.88;;;14.22;67.06
31092;BME280;17747;51.070;10.930;2022-10-16T07:26:14;100676.19;;;14.32;66.85
31092;BME280;17747;51.070;10.930;2022-10-16T07:27:46;100677.69;;;14.61;66.20
31092;BME280;17747;51.070;10.930;2022-10-16T07:29:19;100675.69;;;14.66;65.72
31092;BME280;17747;51.070;10.930;2022-10-16T07:30:51;100668.63;;;14.65;65.58
31092;BME280;17747;51.070;10.930;2022-10-16T07:32:23;100662.72;;;14.59;65.91
31092;BME280;17747;51.070;10.930;2022-10-16T07:33:57;100657.81;;;14.28;65.96
31092;BME280;17747;51.070;10.930;2022-10-16T07:35:29;100658.59;;;14.52;65.90
31092;BME280;17747;51.070;10.930;2022-10-16T07:37:02;100655.50;;;14.40;65.73
31092;BME280;17747;51.070;10.930;2022-10-16T07:38:33;100665.47;;;14.57;65.27
31092;BME280;17747;51.070;10.930;2022-10-16T07:40:05;100672.16;;;14.45;65.76
31092;BME280;17747;51.070;10.930;2022-10-16T07:41:37;100673.22;;;14.62;65.58
31092;BME280;17747;51.070;10.930;2022-10-16T07:43:08;100658.50;;;14.75;65.27
31092;BME280;17747;51.070;10.930;2022-10-16T07:44:39;100654.63;;;14.62;65.71
31092;BME280;17747;51.070;10.930;2022-10-16T07:46:11;100652.97;;;14.59;65.55
31092;BME280;17747;51.070;10.930;2022-10-16T07:47:43;100657.06;;;14.46;66.05
31092;BME280;17747;51.070;10.930;2022-10-16T07:49:14;100649.97;;;14.25;66.56
31092;BME280;17747;51.070;10.930;2022-10-16T07:50:46;100658.88;;;14.66;66.02
31092;BME280;17747;51.070;10.930;2022-10-16T07:52:17;100670.78;;;14.79;65.31
31092;BME280;17747;51.070;10.930;2022-10-16T07:53:49;100674.94;;;14.63;65.80
31092;BME280;17747;51.070;10.930;2022-10-16T07:55:21;100668.59;;;14.67;65.27
31092;BME280;17747;51.070;10.930;2022-10-16T07:56:52;100669.03;;;14.78;64.96
31092;BME280;17747;51.070;10.930;2022-10-16T07:58:24;100670.44;;;14.87;65.02